Station Historical Data
Daily Summary for November 4, 2017 Units:  Metric    English   Both
« Previous Day
Next Day »
Daily Weekly Monthly Yearly Custom
  High: Low: Average:
Temperature: 9.2 °C 1.2 °C 5.2 °C
Dew Point: 3.6 °C -0.6 °C 1.6 °C
Humidity: 90% 67% 78%
Wind Speed: 20.9km/h 0km/h 6km/h
Wind Gust: 32.2km/h - -
Wind- - ENE
Pressure: 1028.7 hPa 1016.8 hPa -
Precipitation: 0 mm    
Historical Graphs
 
 
Tabular Data for November 4, 2017
Time Temperature Dew Point Pressure Wind Wind Speed Wind Gust Humidity Rainfall Rate (Hourly)
00:04 2.6 °C -0.2 °C 1027.7 hPa Calm     82% 0 mm
00:09 2.4 °C -0.4 °C 1027.7 hPa Calm     82% 0 mm
00:14 2.3 °C -0.3 °C 1027.7 hPa Calm     83% 0 mm
00:19 2.3 °C -0.3 °C 1027.7 hPa Calm     83% 0 mm
00:24 2.2 °C -0.4 °C 1027.7 hPa Calm     83% 0 mm
00:29 2.1 °C -0.4 °C 1028 hPa Calm     84% 0 mm
00:34 2 °C -0.4 °C 1028 hPa Calm     84% 0 mm
00:39 1.9 °C -0.3 °C 1028.3 hPa Calm     85% 0 mm
00:44 1.8 °C -0.4 °C 1028.3 hPa Calm     85% 0 mm
00:49 1.8 °C -0.5 °C 1028 hPa Calm     85% 0 mm
00:54 1.8 °C -0.3 °C 1028 hPa Calm     86% 0 mm
00:59 1.8 °C -0.3 °C 1028 hPa Calm     86% 0 mm
01:04 1.9 °C -0.2 °C 1028 hPa Calm     86% 0 mm
01:09 1.8 °C -0.3 °C 1028 hPa Calm     86% 0 mm
01:14 1.7 °C -0.4 °C 1028 hPa Calm     86% 0 mm
01:19 1.6 °C -0.4 °C 1028 hPa Calm     87% 0 mm
01:24 1.5 °C -0.4 °C 1028 hPa Calm     87% 0 mm
01:29 1.4 °C -0.5 °C 1028 hPa Calm     87% 0 mm
01:34 1.4 °C -0.5 °C 1028 hPa Calm     87% 0 mm
01:39 1.5 °C -0.3 °C 1028 hPa Calm     88% 0 mm
01:44 1.6 °C -0.2 °C 1027.7 hPa Calm     88% 0 mm
01:49 1.5 °C -0.3 °C 1028 hPa Calm     88% 0 mm
01:54 1.4 °C -0.3 °C 1028 hPa Calm     88% 0 mm
01:59 1.3 °C -0.5 °C 1028 hPa Calm     88% 0 mm
02:04 1.3 °C -0.5 °C 1028 hPa Calm     88% 0 mm
02:09 1.2 °C -0.6 °C 1028 hPa Calm     88% 0 mm
02:14 1.2 °C -0.6 °C 1028 hPa Calm     88% 0 mm
02:19 1.2 °C -0.6 °C 1028 hPa Calm     88% 0 mm
02:24 1.2 °C -0.4 °C 1028 hPa Calm     89% 0 mm
02:29 1.2 °C -0.4 °C 1028 hPa Calm     89% 0 mm
02:34 1.3 °C -0.3 °C 1028 hPa Calm     89% 0 mm
02:39 1.3 °C -0.3 °C 1028 hPa Calm     89% 0 mm
02:44 1.3 °C -0.3 °C 1028 hPa Calm     89% 0 mm
02:49 1.3 °C -0.3 °C 1028 hPa Calm     89% 0 mm
02:54 1.4 °C -0.2 °C 1027.7 hPa Calm     89% 0 mm
02:59 1.6 °C -0.1 °C 1027.7 hPa Calm     89% 0 mm
03:04 1.6 °C -0.1 °C 1027.7 hPa Calm     89% 0 mm
03:09 1.7 °C 0.1 °C 1027.3 hPa Calm     89% 0 mm
03:14 1.7 °C 0.2 °C 1027.7 hPa Calm     90% 0 mm
03:19 1.7 °C 0.1 °C 1027.7 hPa Calm     89% 0 mm
03:24 1.6 °C 0 °C 1027.7 hPa Calm     89% 0 mm
03:29 1.6 °C -0.1 °C 1027.7 hPa Calm     89% 0 mm
03:34 1.6 °C -0.1 °C 1027.7 hPa Calm     89% 0 mm
03:39 1.6 °C -0.1 °C 1027.7 hPa Calm     89% 0 mm
03:44 1.6 °C 0.1 °C 1027.7 hPa Calm     90% 0 mm
03:49 1.6 °C 0.1 °C 1027.7 hPa Calm     90% 0 mm
03:54 1.6 °C 0.1 °C 1027.7 hPa Calm     90% 0 mm
03:59 1.6 °C 0.1 °C 1027.3 hPa Calm     90% 0 mm
04:04 1.5 °C -0.1 °C 1027.7 hPa Calm     89% 0 mm
04:09 1.5 °C -0.1 °C 1027.7 hPa Calm     89% 0 mm
04:14 1.4 °C -0.2 °C 1027.7 hPa Calm     89% 0 mm
04:19 1.4 °C -0.2 °C 1028 hPa Calm     89% 0 mm
04:24 1.4 °C -0.2 °C 1028 hPa Calm     89% 0 mm
04:29 1.4 °C -0.2 °C 1028 hPa Calm     89% 0 mm
04:34 1.3 °C -0.3 °C 1028 hPa Calm     89% 0 mm
04:39 1.3 °C -0.1 °C 1028 hPa Calm     90% 0 mm
04:44 1.3 °C -0.1 °C 1028 hPa Calm     90% 0 mm
04:49 1.3 °C -0.2 °C 1028.3 hPa Calm     90% 0 mm
04:54 1.3 °C -0.2 °C 1028.3 hPa Calm     90% 0 mm
04:59 1.3 °C -0.1 °C 1028.3 hPa Calm     90% 0 mm
05:04 1.3 °C -0.2 °C 1028.3 hPa Calm     90% 0 mm
05:09 1.2 °C -0.2 °C 1028.7 hPa Calm     90% 0 mm
05:14 1.2 °C -0.2 °C 1028.7 hPa Calm     90% 0 mm
05:19 1.3 °C -0.2 °C 1028.3 hPa Calm     90% 0 mm
05:24 1.3 °C -0.2 °C 1028.3 hPa Calm     90% 0 mm
05:29 1.3 °C -0.2 °C 1028.3 hPa Calm     90% 0 mm
05:34 1.4 °C -0.1 °C 1028 hPa Calm     90% 0 mm
05:39 1.4 °C -0.1 °C 1028 hPa Calm     90% 0 mm
05:44 1.4 °C 0 °C 1028 hPa Calm     90% 0 mm
05:49 1.5 °C 0.1 °C 1028 hPa Calm     90% 0 mm
05:54 1.4 °C 0 °C 1028 hPa Calm     90% 0 mm
05:59 1.4 °C 0 °C 1028 hPa Calm     90% 0 mm
06:04 1.4 °C -0.1 °C 1028 hPa Calm     90% 0 mm
06:09 1.4 °C -0.1 °C 1028 hPa Calm     90% 0 mm
06:14 1.4 °C -0.1 °C 1027.7 hPa Calm     90% 0 mm
06:19 1.3 °C -0.1 °C 1027.7 hPa Calm     90% 0 mm
06:24 1.4 °C -0.1 °C 1027.7 hPa Calm     90% 0 mm
06:29 1.4 °C -0.1 °C 1027.7 hPa Calm     90% 0 mm
06:34 1.3 °C -0.1 °C 1027.7 hPa Calm     90% 0 mm
06:39 1.4 °C -0.1 °C 1027.7 hPa Calm     90% 0 mm
06:44 1.4 °C 0 °C 1028 hPa Calm     90% 0 mm
06:49 1.4 °C 0 °C 1028 hPa Calm     90% 0 mm
06:54 1.4 °C 0 °C 1028 hPa Calm     90% 0 mm
06:59 1.5 °C 0.1 °C 1027.7 hPa Calm     90% 0 mm
07:04 1.5 °C 0.1 °C 1028 hPa Calm     90% 0 mm
07:09 1.5 °C 0.1 °C 1028 hPa Calm     90% 0 mm
07:14 1.4 °C 0 °C 1027.7 hPa Calm     90% 0 mm
07:19 1.4 °C 0 °C 1027.7 hPa Calm     90% 0 mm
07:24 1.4 °C 0 °C 1027.7 hPa Calm   1.6 km/h 90% 0 mm
07:29 1.4 °C 0 °C 1027.7 hPa Calm   4.8 km/h 90% 0 mm
07:34 1.4 °C -0.2 °C 1027.7 hPa ENE 1.6 km/h 6.4 km/h 89% 0 mm
07:39 1.4 °C -0.2 °C 1027.3 hPa ENE 1.6 km/h 8 km/h 89% 0 mm
07:44 1.4 °C -0.2 °C 1027.3 hPa Calm   6.4 km/h 89% 0 mm
07:49 1.4 °C -0.2 °C 1027.3 hPa Calm     89% 0 mm
07:54 1.5 °C -0.1 °C 1027.3 hPa Calm   6.4 km/h 89% 0 mm
07:59 1.5 °C -0.1 °C 1027.3 hPa ENE 1.6 km/h 6.4 km/h 89% 0 mm
08:04 1.6 °C -0.1 °C 1027.3 hPa Calm   4.8 km/h 89% 0 mm
08:09 1.7 °C 0.1 °C 1027.3 hPa East 3.2 km/h 4.8 km/h 89% 0 mm
08:14 1.7 °C 0.1 °C 1027.3 hPa Calm   4.8 km/h 89% 0 mm
08:19 1.8 °C 0.2 °C 1027.3 hPa Calm   3.2 km/h 89% 0 mm
08:24 1.9 °C 0.3 °C 1027 hPa Calm   8 km/h 89% 0 mm
08:29 2.1 °C 0.3 °C 1027 hPa East 1.6 km/h 8 km/h 88% 0 mm
08:34 2.2 °C 0.4 °C 1027 hPa ESE 1.6 km/h 4.8 km/h 88% 0 mm
08:39 2.3 °C 0.6 °C 1027 hPa Calm   4.8 km/h 88% 0 mm
08:44 2.5 °C 0.7 °C 1027.3 hPa Calm   4.8 km/h 88% 0 mm
08:49 2.7 °C 0.7 °C 1027.3 hPa Calm   3.2 km/h 87% 0 mm
08:54 2.9 °C 0.9 °C 1027.3 hPa Calm   3.2 km/h 87% 0 mm
08:59 3.1 °C 1.1 °C 1027.3 hPa Calm   3.2 km/h 87% 0 mm
09:04 3.3 °C 1.4 °C 1027.3 hPa ENE 1.6 km/h 8 km/h 87% 0 mm
09:09 3.6 °C 1.5 °C 1027.3 hPa ENE 4.8 km/h 11.3 km/h 86% 0 mm
09:14 3.8 °C 1.5 °C 1027.3 hPa ENE 4.8 km/h 11.3 km/h 85% 0 mm
09:19 3.9 °C 1.5 °C 1027.3 hPa NE 8 km/h 12.9 km/h 84% 0 mm
09:24 4.1 °C 1.5 °C 1027.3 hPa ENE 17.7 km/h 17.7 km/h 83% 0 mm
09:29 4.3 °C 1.7 °C 1027.3 hPa ENE 4.8 km/h 16.1 km/h 83% 0 mm
09:34 4.4 °C 1.6 °C 1027.3 hPa NE 8 km/h 17.7 km/h 82% 0 mm
09:39 4.6 °C 1.6 °C 1027.3 hPa ENE 8 km/h 16.1 km/h 81% 0 mm
09:44 4.7 °C 1.7 °C 1027.3 hPa ENE 8 km/h 16.1 km/h 81% 0 mm
09:49 4.9 °C 1.9 °C 1027.3 hPa NE 6.4 km/h 12.9 km/h 81% 0 mm
09:54 5 °C 1.8 °C 1027 hPa ENE 6.4 km/h 14.5 km/h 80% 0 mm
09:59 5.1 °C 1.9 °C 1027.3 hPa NE 8 km/h 16.1 km/h 80% 0 mm
10:04 5.2 °C 1.9 °C 1027.3 hPa ENE 8 km/h 16.1 km/h 79% 0 mm
10:09 5.3 °C 2 °C 1027.3 hPa ENE 8 km/h 16.1 km/h 79% 0 mm
10:14 5.4 °C 1.8 °C 1027.3 hPa ENE 8 km/h 20.9 km/h 78% 0 mm
10:19 5.5 °C 1.8 °C 1027.3 hPa NNE 9.7 km/h 17.7 km/h 77% 0 mm
10:24 5.6 °C 1.8 °C 1027.3 hPa NE 6.4 km/h 19.3 km/h 77% 0 mm
10:29 5.7 °C 1.9 °C 1027.3 hPa ESE 6.4 km/h 19.3 km/h 77% 0 mm
10:34 5.8 °C 1.9 °C 1027 hPa East 9.7 km/h 16.1 km/h 76% 0 mm
10:39 5.9 °C 2.1 °C 1027 hPa ENE 6.4 km/h 17.7 km/h 76% 0 mm
10:44 6.1 °C 2.2 °C 1027 hPa ENE 8 km/h 20.9 km/h 76% 0 mm
10:49 6.1 °C 2 °C 1027 hPa ENE 8 km/h 20.9 km/h 75% 0 mm
10:54 6.2 °C 2.3 °C 1027 hPa ENE 8 km/h 22.5 km/h 76% 0 mm
10:59 6.2 °C 2.1 °C 1027 hPa ENE 4.8 km/h 20.9 km/h 75% 0 mm
11:04 6.4 °C 2.3 °C 1026.6 hPa ENE 6.4 km/h 16.1 km/h 75% 0 mm
11:09 6.4 °C 2.3 °C 1027 hPa ENE 11.3 km/h 20.9 km/h 75% 0 mm
11:14 6.5 °C 2.4 °C 1026.6 hPa ENE 9.7 km/h 20.9 km/h 75% 0 mm
11:19 6.7 °C 2.3 °C 1026.6 hPa NE 4.8 km/h 14.5 km/h 74% 0 mm
11:24 6.8 °C 2.3 °C 1026.6 hPa ENE 6.4 km/h 17.7 km/h 73% 0 mm
11:29 7 °C 2.5 °C 1026.6 hPa ENE 6.4 km/h 17.7 km/h 73% 0 mm
11:34 7.1 °C 2.6 °C 1026.3 hPa East 12.9 km/h 17.7 km/h 73% 0 mm
11:39 7.1 °C 2.2 °C 1026.3 hPa East 14.5 km/h 22.5 km/h 71% 0 mm
11:44 7.2 °C 2.5 °C 1026.3 hPa ENE 4.8 km/h 17.7 km/h 72% 0 mm
11:49 7.3 °C 2.4 °C 1026.3 hPa ENE 11.3 km/h 24.1 km/h 71% 0 mm
11:54 7.3 °C 2.4 °C 1026.3 hPa ENE 9.7 km/h 24.1 km/h 71% 0 mm
11:59 7.4 °C 2.5 °C 1026.3 hPa ENE 9.7 km/h 19.3 km/h 71% 0 mm
12:04 7.4 °C 2.3 °C 1026 hPa ENE 9.7 km/h 24.1 km/h 70% 0 mm
12:09 7.5 °C 2.4 °C 1026 hPa ENE 12.9 km/h 32.2 km/h 70% 0 mm
12:14 7.5 °C 2.4 °C 1026 hPa ENE 12.9 km/h 32.2 km/h 70% 0 mm
12:19 7.5 °C 2.2 °C 1026 hPa East 9.7 km/h 30.6 km/h 69% 0 mm
12:24 7.5 °C 2.2 °C 1026 hPa NE 9.7 km/h 22.5 km/h 69% 0 mm
12:29 7.6 °C 2.3 °C 1026 hPa ENE 11.3 km/h 22.5 km/h 69% 0 mm
12:34 7.6 °C 2.3 °C 1026 hPa East 9.7 km/h 24.1 km/h 69% 0 mm
12:39 7.7 °C 2.3 °C 1026 hPa ENE 17.7 km/h 29 km/h 69% 0 mm
12:44 7.7 °C 2.3 °C 1025.6 hPa ENE 11.3 km/h 29 km/h 69% 0 mm
12:49 7.8 °C 2.4 °C 1025.6 hPa NE 6.4 km/h 25.7 km/h 69% 0 mm
12:54 7.8 °C 2.4 °C 1025.6 hPa ENE 11.3 km/h 25.7 km/h 69% 0 mm
12:59 7.9 °C 2.6 °C 1025.6 hPa ENE 9.7 km/h 25.7 km/h 69% 0 mm
13:04 7.9 °C 2.6 °C 1025.3 hPa ENE 8 km/h 17.7 km/h 69% 0 mm
13:09 8 °C 2.7 °C 1025.6 hPa ENE 9.7 km/h 20.9 km/h 69% 0 mm
13:14 8.1 °C 2.7 °C 1025.3 hPa ENE 8 km/h 20.9 km/h 69% 0 mm
13:19 8.2 °C 2.6 °C 1025.3 hPa East 8 km/h 17.7 km/h 68% 0 mm
13:24 8.3 °C 2.5 °C 1025.3 hPa NNE 9.7 km/h 22.5 km/h 67% 0 mm
13:29 8.3 °C 2.7 °C 1025.3 hPa ENE 11.3 km/h 22.5 km/h 68% 0 mm
13:34 8.3 °C 2.5 °C 1024.9 hPa ENE 17.7 km/h 22.5 km/h 67% 0 mm
13:39 8.3 °C 2.8 °C 1024.9 hPa ENE 16.1 km/h 17.7 km/h 68% 0 mm
13:44 8.3 °C 2.5 °C 1024.9 hPa ESE 11.3 km/h 25.7 km/h 67% 0 mm
13:49 8.6 °C 3 °C 1024.9 hPa NE 16.1 km/h 16.1 km/h 68% 0 mm
13:54 8.8 °C 3 °C 1024.6 hPa ENE 8 km/h 25.7 km/h 67% 0 mm
13:59 9.2 °C 3.6 °C 1024.6 hPa East 17.7 km/h 24.1 km/h 68% 0 mm
14:04 8.9 °C 3.2 °C 1024.6 hPa East 9.7 km/h 24.1 km/h 67% 0 mm
14:09 8.8 °C 3.1 °C 1024.3 hPa East 11.3 km/h 24.1 km/h 67% 0 mm
14:14 8.7 °C 3.1 °C 1024.3 hPa East 11.3 km/h 22.5 km/h 68% 0 mm
14:19 8.7 °C 2.9 °C 1023.9 hPa ENE 11.3 km/h 22.5 km/h 67% 0 mm
14:24 8.6 °C 3 °C 1023.9 hPa ENE 11.3 km/h 24.1 km/h 68% 0 mm
14:29 8.6 °C 3 °C 1023.9 hPa ENE 12.9 km/h 19.3 km/h 68% 0 mm
14:34 8.7 °C 3.1 °C 1023.9 hPa ENE 11.3 km/h 22.5 km/h 68% 0 mm
14:39 8.8 °C 3.2 °C 1023.6 hPa ENE 4.8 km/h 20.9 km/h 68% 0 mm
14:44 8.8 °C 3.2 °C 1023.6 hPa East 16.1 km/h 24.1 km/h 68% 0 mm
14:49 8.9 °C 3.3 °C 1023.6 hPa NE 12.9 km/h 22.5 km/h 68% 0 mm
14:54 9.1 °C 3.4 °C 1023.6 hPa NE 14.5 km/h 20.9 km/h 68% 0 mm
14:59 9.1 °C 3.4 °C 1023.2 hPa NE 19.3 km/h 24.1 km/h 68% 0 mm
15:04 9.1 °C 3.2 °C 1023.2 hPa SE 8 km/h 24.1 km/h 67% 0 mm
15:09 9.2 °C 3.6 °C 1022.9 hPa ENE 11.3 km/h 24.1 km/h 68% 0 mm
15:14 9.1 °C 3.4 °C 1022.9 hPa ENE 11.3 km/h 25.7 km/h 68% 0 mm
15:19 9.1 °C 3.4 °C 1022.9 hPa ENE 11.3 km/h 25.7 km/h 68% 0 mm
15:24 9.1 °C 3.4 °C 1022.6 hPa ENE 11.3 km/h 20.9 km/h 68% 0 mm
15:29 9.2 °C 3.6 °C 1022.6 hPa ENE 11.3 km/h 22.5 km/h 68% 0 mm
15:34 9.1 °C 3.3 °C 1022.6 hPa NE 14.5 km/h 32.2 km/h 67% 0 mm
15:39 8.9 °C 3.3 °C 1022.6 hPa ENE 14.5 km/h 32.2 km/h 68% 0 mm
15:44 8.8 °C 3.2 °C 1022.6 hPa ENE 14.5 km/h 30.6 km/h 68% 0 mm
15:49 8.6 °C 3.2 °C 1022.6 hPa ENE 8 km/h 24.1 km/h 69% 0 mm
15:54 8.8 °C 3.4 °C 1022.2 hPa East 16.1 km/h 20.9 km/h 69% 0 mm
15:59 9 °C 3.6 °C 1022.2 hPa ESE 4.8 km/h 19.3 km/h 69% 0 mm
16:04 9 °C 3.4 °C 1021.9 hPa NE 11.3 km/h 27.4 km/h 68% 0 mm
16:09 9 °C 3.4 °C 1021.9 hPa ENE 12.9 km/h 27.4 km/h 68% 0 mm
16:14 9.1 °C 3.2 °C 1022.2 hPa ENE 12.9 km/h 25.7 km/h 67% 0 mm
16:19 9 °C 3.4 °C 1021.9 hPa ENE 11.3 km/h 25.7 km/h 68% 0 mm
16:24 9.1 °C 3.4 °C 1021.9 hPa ENE 4.8 km/h 24.1 km/h 68% 0 mm
16:29 8.8 °C 3.2 °C 1021.9 hPa NE 11.3 km/h 24.1 km/h 68% 0 mm
16:34 8.8 °C 3.2 °C 1021.9 hPa NE 17.7 km/h 27.4 km/h 68% 0 mm
16:39 8.9 °C 3.3 °C 1021.9 hPa NE 9.7 km/h 25.7 km/h 68% 0 mm
16:44 8.7 °C 3.1 °C 1021.9 hPa ENE 14.5 km/h 25.7 km/h 68% 0 mm
16:49 8.6 °C 3 °C 1021.9 hPa ENE 12.9 km/h 27.4 km/h 68% 0 mm
16:54 8.4 °C 3 °C 1021.6 hPa ENE 11.3 km/h 27.4 km/h 69% 0 mm
16:59 8.4 °C 3 °C 1021.6 hPa NE 9.7 km/h 22.5 km/h 69% 0 mm
17:04 8.4 °C 3 °C 1021.6 hPa ENE 20.9 km/h 24.1 km/h 69% 0 mm
17:09 8.3 °C 2.7 °C 1021.6 hPa ENE 12.9 km/h 27.4 km/h 68% 0 mm
17:14 8.2 °C 2.8 °C 1021.6 hPa East 16.1 km/h 22.5 km/h 69% 0 mm
17:19 8.1 °C 2.8 °C 1021.6 hPa ENE 12.9 km/h 27.4 km/h 69% 0 mm
17:24 8.1 °C 2.7 °C 1021.6 hPa ENE 8 km/h 22.5 km/h 69% 0 mm
17:29 7.9 °C 2.6 °C 1021.6 hPa NE 9.7 km/h 20.9 km/h 69% 0 mm
17:34 7.9 °C 2.6 °C 1021.9 hPa East 9.7 km/h 19.3 km/h 69% 0 mm
17:39 7.8 °C 2.7 °C 1021.6 hPa ENE 14.5 km/h 24.1 km/h 70% 0 mm
17:44 7.7 °C 2.6 °C 1021.6 hPa ENE 14.5 km/h 27.4 km/h 70% 0 mm
17:49 7.7 °C 2.6 °C 1021.6 hPa ENE 11.3 km/h 27.4 km/h 70% 0 mm
17:54 7.5 °C 2.4 °C 1021.6 hPa ENE 9.7 km/h 22.5 km/h 70% 0 mm
17:59 7.4 °C 2.3 °C 1021.6 hPa ENE 9.7 km/h 29 km/h 70% 0 mm
18:04 7.3 °C 2.4 °C 1021.6 hPa ENE 9.7 km/h 29 km/h 71% 0 mm
18:09 7.3 °C 2.4 °C 1021.6 hPa ENE 9.7 km/h 20.9 km/h 71% 0 mm
18:14 7.3 °C 2.4 °C 1021.6 hPa ENE 9.7 km/h 20.9 km/h 71% 0 mm
18:19 7.2 °C 2.3 °C 1021.6 hPa ENE 8 km/h 16.1 km/h 71% 0 mm
18:24 7.2 °C 2.3 °C 1021.6 hPa ENE 12.9 km/h 17.7 km/h 71% 0 mm
18:29 7.1 °C 2.2 °C 1021.6 hPa East 9.7 km/h 17.7 km/h 71% 0 mm
18:34 7.1 °C 2.3 °C 1021.6 hPa ENE 6.4 km/h 17.7 km/h 72% 0 mm
18:39 7.1 °C 2.3 °C 1021.2 hPa ENE 11.3 km/h 16.1 km/h 72% 0 mm
18:44 7 °C 2.3 °C 1021.2 hPa NE 9.7 km/h 17.7 km/h 72% 0 mm
18:49 7 °C 2.3 °C 1021.2 hPa NE 8 km/h 17.7 km/h 72% 0 mm
18:54 7 °C 2.5 °C 1021.2 hPa East 9.7 km/h 14.5 km/h 73% 0 mm
18:59 7.1 °C 2.6 °C 1021.6 hPa ENE 8 km/h 22.5 km/h 73% 0 mm
19:04 7.1 °C 2.6 °C 1021.6 hPa ENE 9.7 km/h 24.1 km/h 73% 0 mm
19:09 7.1 °C 2.6 °C 1021.2 hPa ENE 9.7 km/h 24.1 km/h 73% 0 mm
19:14 7.1 °C 2.6 °C 1021.2 hPa ENE 11.3 km/h 30.6 km/h 73% 0 mm
19:19 7.1 °C 2.6 °C 1021.2 hPa ENE 11.3 km/h 30.6 km/h 73% 0 mm
19:24 7 °C 2.5 °C 1021.2 hPa ENE 12.9 km/h 19.3 km/h 73% 0 mm
19:29 7 °C 2.5 °C 1021.2 hPa ENE 8 km/h 16.1 km/h 73% 0 mm
19:34 7 °C 2.5 °C 1021.2 hPa ENE 11.3 km/h 20.9 km/h 73% 0 mm
19:39 7 °C 2.5 °C 1020.9 hPa ENE 11.3 km/h 17.7 km/h 73% 0 mm
19:44 7 °C 2.5 °C 1020.9 hPa NE 9.7 km/h 20.9 km/h 73% 0 mm
19:49 7 °C 2.7 °C 1020.9 hPa NE 12.9 km/h 17.7 km/h 74% 0 mm
19:54 6.9 °C 2.6 °C 1020.9 hPa NE 16.1 km/h 17.7 km/h 74% 0 mm
19:59 6.9 °C 2.6 °C 1020.9 hPa ENE 6.4 km/h 22.5 km/h 74% 0 mm
20:04 6.9 °C 2.6 °C 1020.5 hPa ENE 9.7 km/h 22.5 km/h 74% 0 mm
20:09 6.9 °C 2.6 °C 1020.5 hPa ENE 9.7 km/h 20.9 km/h 74% 0 mm
20:14 6.9 °C 2.6 °C 1020.5 hPa ENE 9.7 km/h 20.9 km/h 74% 0 mm
20:19 6.9 °C 2.6 °C 1020.5 hPa ENE 9.7 km/h 20.9 km/h 74% 0 mm
20:24 6.9 °C 2.6 °C 1020.5 hPa ENE 9.7 km/h 19.3 km/h 74% 0 mm
20:29 6.9 °C 2.6 °C 1020.5 hPa ENE 9.7 km/h 20.9 km/h 74% 0 mm
20:34 6.9 °C 2.6 °C 1020.2 hPa NE 8 km/h 17.7 km/h 74% 0 mm
20:39 6.9 °C 2.6 °C 1020.2 hPa NE 3.2 km/h 16.1 km/h 74% 0 mm
20:44 6.9 °C 2.6 °C 1019.9 hPa ENE 16.1 km/h 20.9 km/h 74% 0 mm
20:49 6.9 °C 2.6 °C 1020.2 hPa ENE 3.2 km/h 19.3 km/h 74% 0 mm
20:54 6.9 °C 2.6 °C 1019.9 hPa NE 11.3 km/h 19.3 km/h 74% 0 mm
20:59 6.9 °C 2.6 °C 1019.9 hPa NE 8 km/h 16.1 km/h 74% 0 mm
21:04 6.9 °C 2.6 °C 1019.5 hPa NE 17.7 km/h 17.7 km/h 74% 0 mm
21:09 6.9 °C 2.6 °C 1019.9 hPa ENE 9.7 km/h 19.3 km/h 74% 0 mm
21:14 6.9 °C 2.6 °C 1019.9 hPa NE 9.7 km/h 19.3 km/h 74% 0 mm
21:19 6.9 °C 2.6 °C 1019.9 hPa ENE 8 km/h 17.7 km/h 74% 0 mm
21:24 6.9 °C 2.6 °C 1019.9 hPa ENE 8 km/h 14.5 km/h 74% 0 mm
21:29 6.9 °C 2.6 °C 1019.5 hPa ENE 8 km/h 16.1 km/h 74% 0 mm
21:34 6.9 °C 2.6 °C 1019.5 hPa ENE 9.7 km/h 17.7 km/h 74% 0 mm
21:39 6.9 °C 2.6 °C 1019.2 hPa ENE 4.8 km/h 17.7 km/h 74% 0 mm
21:44 6.9 °C 2.6 °C 1019.2 hPa ENE 8 km/h 22.5 km/h 74% 0 mm
21:49 6.9 °C 2.6 °C 1018.8 hPa ENE 4.8 km/h 17.7 km/h 74% 0 mm
21:54 6.9 °C 2.6 °C 1018.5 hPa ENE 11.3 km/h 14.5 km/h 74% 0 mm
21:59 6.9 °C 2.6 °C 1018.5 hPa East 12.9 km/h 16.1 km/h 74% 0 mm
22:04 6.9 °C 2.6 °C 1018.2 hPa East 8 km/h 14.5 km/h 74% 0 mm
22:09 6.9 °C 2.6 °C 1018.2 hPa NE 6.4 km/h 17.7 km/h 74% 0 mm
22:14 6.9 °C 2.6 °C 1018.2 hPa ENE 6.4 km/h 14.5 km/h 74% 0 mm
22:19 6.9 °C 2.6 °C 1017.8 hPa East 8 km/h 16.1 km/h 74% 0 mm
22:24 6.9 °C 2.6 °C 1017.5 hPa East 6.4 km/h 16.1 km/h 74% 0 mm
22:29 6.9 °C 2.6 °C 1017.8 hPa East 6.4 km/h 16.1 km/h 74% 0 mm
22:34 6.9 °C 2.6 °C 1018.2 hPa ENE 3.2 km/h 16.1 km/h 74% 0 mm
22:39 6.8 °C 2.5 °C 1017.8 hPa NE 6.4 km/h 8 km/h 74% 0 mm
22:44 6.8 °C 2.5 °C 1017.8 hPa NE 6.4 km/h 11.3 km/h 74% 0 mm
22:49 6.8 °C 2.5 °C 1017.5 hPa NE 6.4 km/h 9.7 km/h 74% 0 mm
22:54 6.8 °C 2.7 °C 1017.2 hPa ENE 1.6 km/h 11.3 km/h 75% 0 mm
22:59 6.8 °C 2.7 °C 1017.2 hPa ENE 3.2 km/h 8 km/h 75% 0 mm
23:04 6.8 °C 2.7 °C 1017.2 hPa East 4.8 km/h 11.3 km/h 75% 0 mm
23:09 6.9 °C 2.8 °C 1017.2 hPa NE 3.2 km/h 8 km/h 75% 0 mm
23:15 7 °C 2.9 °C 1017.5 hPa ENE 3.2 km/h 8 km/h 75% 0 mm
23:24 7 °C 2.9 °C 1017.5 hPa Calm   3.2 km/h 75% 0 mm
23:29 7 °C 2.9 °C 1017.5 hPa Calm   4.8 km/h 75% 0 mm
23:34 7.1 °C 3 °C 1017.5 hPa Calm   4.8 km/h 75% 0 mm
23:39 7.2 °C 3.1 °C 1017.2 hPa ENE 1.6 km/h 4.8 km/h 75% 0 mm
23:44 7.4 °C 3.1 °C 1017.2 hPa ENE 3.2 km/h 4.8 km/h 74% 0 mm
23:49 7.4 °C 3.1 °C 1017.2 hPa Calm   6.4 km/h 74% 0 mm
23:54 7.5 °C 3.2 °C 1017.2 hPa NE 1.6 km/h 6.4 km/h 74% 0 mm
23:59 7.6 °C 3.2 °C 1016.8 hPa Calm     74% 0 mm
Buffalo, New York, USA
Compliments of Weather Underground - 2.5 mb